FACT

Cape Town International Airport

Cape Town, South Africa
METAR FACT 212300Z VRB02KT 9999 FEW040 06/05 Q1024 NOSIG
Observed Flight Rules
Aug-21 @ 23:00 UTC (45 minutes ago) Visual Flight Rules
Wind Visibility Clouds
Variable at 2 knots 10,000+ meters
  • Few at 4,000' AGL
Temperatures Readings
Current 6°C / 43°F
Dewpoint 5°C / 41°F
Humidity 93%
Altimeter 30.24" Hg
Pressure 1024 hPa
Elevation 42
METAR FACT 212300Z VRB02KT 9999 FEW040 06/05 Q1024 NOSIG
Observed Flight Rules
Aug-21 @ 23:00 UTC
(45 minutes ago)
VFR
Wind Visibility
Variable at 2 knots 10,000+ meters
Clouds
  • Few at 4,000' AGL
Temperature Dewpoint
6°C / 43°F 5°C / 41°F
Humidity Altimeter Pressure
93% 30.24" Hg 1024 hPa